sensor_id;sensor_type;location;lat;lon;timestamp;P1;durP1;ratioP1;P2;durP2;ratioP2
74245;SDS011;62601;51.044;13.788;2023-02-13T00:00:54;25.60;;;17.40;;
74245;SDS011;62601;51.044;13.788;2023-02-13T00:03:15;26.58;;;18.27;;
74245;SDS011;62601;51.044;13.788;2023-02-13T00:05:35;22.38;;;16.88;;
74245;SDS011;62601;51.044;13.788;2023-02-13T00:07:55;24.23;;;18.55;;
74245;SDS011;62601;51.044;13.788;2023-02-13T00:10:15;27.75;;;18.77;;
74245;SDS011;62601;51.044;13.788;2023-02-13T00:12:35;24.25;;;18.85;;
74245;SDS011;62601;51.044;13.788;2023-02-13T00:14:55;22.05;;;17.33;;
74245;SDS011;62601;51.044;13.788;2023-02-13T00:17:15;23.27;;;17.27;;
74245;SDS011;62601;51.044;13.788;2023-02-13T00:19:35;30.45;;;20.25;;
74245;SDS011;62601;51.044;13.788;2023-02-13T00:21:55;28.42;;;19.80;;
74245;SDS011;62601;51.044;13.788;2023-02-13T00:24:16;25.73;;;19.63;;
74245;SDS011;62601;51.044;13.788;2023-02-13T00:26:36;27.13;;;18.60;;
74245;SDS011;62601;51.044;13.788;2023-02-13T00:29:02;26.08;;;18.27;;
74245;SDS011;62601;51.044;13.788;2023-02-13T00:31:22;26.17;;;17.20;;
74245;SDS011;62601;51.044;13.788;2023-02-13T00:33:42;25.58;;;18.50;;
74245;SDS011;62601;51.044;13.788;2023-02-13T00:36:07;24.10;;;17.20;;
74245;SDS011;62601;51.044;13.788;2023-02-13T00:38:28;25.23;;;17.83;;
74245;SDS011;62601;51.044;13.788;2023-02-13T00:40:48;29.48;;;19.27;;
74245;SDS011;62601;51.044;13.788;2023-02-13T00:43:08;28.33;;;18.65;;
74245;SDS011;62601;51.044;13.788;2023-02-13T00:45:28;24.83;;;17.20;;
74245;SDS011;62601;51.044;13.788;2023-02-13T00:47:49;26.60;;;17.48;;
74245;SDS011;62601;51.044;13.788;2023-02-13T00:50:09;26.25;;;17.60;;
74245;SDS011;62601;51.044;13.788;2023-02-13T00:52:29;26.98;;;18.40;;
74245;SDS011;62601;51.044;13.788;2023-02-13T00:54:49;25.75;;;17.25;;
74245;SDS011;62601;51.044;13.788;2023-02-13T00:57:09;27.45;;;17.33;;
74245;SDS011;62601;51.044;13.788;2023-02-13T00:59:29;24.10;;;17.23;;
74245;SDS011;62601;51.044;13.788;2023-02-13T01:01:49;23.92;;;16.42;;
74245;SDS011;62601;51.044;13.788;2023-02-13T01:04:10;24.50;;;17.52;;
74245;SDS011;62601;51.044;13.788;2023-02-13T01:06:30;24.80;;;16.98;;
74245;SDS011;62601;51.044;13.788;2023-02-13T01:08:50;28.17;;;18.70;;
74245;SDS011;62601;51.044;13.788;2023-02-13T01:11:10;25.88;;;17.30;;
74245;SDS011;62601;51.044;13.788;2023-02-13T01:13:30;25.98;;;17.75;;
74245;SDS011;62601;51.044;13.788;2023-02-13T01:15:50;27.27;;;17.52;;
74245;SDS011;62601;51.044;13.788;2023-02-13T01:18:17;29.02;;;17.52;;
74245;SDS011;62601;51.044;13.788;2023-02-13T01:20:37;28.85;;;19.13;;
74245;SDS011;62601;51.044;13.788;2023-02-13T01:22:58;28.20;;;17.88;;
74245;SDS011;62601;51.044;13.788;2023-02-13T01:25:18;24.20;;;17.05;;
74245;SDS011;62601;51.044;13.788;2023-02-13T01:27:38;24.58;;;17.75;;
74245;SDS011;62601;51.044;13.788;2023-02-13T01:29:58;23.60;;;16.13;;
74245;SDS011;62601;51.044;13.788;2023-02-13T01:32:18;31.05;;;17.08;;
74245;SDS011;62601;51.044;13.788;2023-02-13T01:34:38;25.70;;;16.92;;
74245;SDS011;62601;51.044;13.788;2023-02-13T01:36:59;22.17;;;15.27;;
74245;SDS011;62601;51.044;13.788;2023-02-13T01:39:19;26.73;;;16.85;;
74245;SDS011;62601;51.044;13.788;2023-02-13T01:41:39;26.27;;;16.65;;
74245;SDS011;62601;51.044;13.788;2023-02-13T01:43:59;26.88;;;17.73;;
74245;SDS011;62601;51.044;13.788;2023-02-13T01:46:21;26.70;;;17.10;;
74245;SDS011;62601;51.044;13.788;2023-02-13T01:48:43;26.92;;;16.05;;
74245;SDS011;62601;51.044;13.788;2023-02-13T01:51:05;29.92;;;18.38;;
74245;SDS011;62601;51.044;13.788;2023-02-13T01:55:51;28.13;;;17.33;;
74245;SDS011;62601;51.044;13.788;2023-02-13T01:58:13;23.80;;;16.30;;
74245;SDS011;62601;51.044;13.788;2023-02-13T02:00:35;26.50;;;17.15;;
74245;SDS011;62601;51.044;13.788;2023-02-13T02:02:57;26.23;;;17.50;;
74245;SDS011;62601;51.044;13.788;2023-02-13T02:05:19;21.85;;;15.70;;
74245;SDS011;62601;51.044;13.788;2023-02-13T02:07:40;28.55;;;17.55;;
74245;SDS011;62601;51.044;13.788;2023-02-13T02:10:02;30.00;;;19.13;;
74245;SDS011;62601;51.044;13.788;2023-02-13T02:14:43;25.77;;;16.70;;
74245;SDS011;62601;51.044;13.788;2023-02-13T02:17:03;25.20;;;15.73;;
74245;SDS011;62601;51.044;13.788;2023-02-13T02:24:16;26.00;;;16.60;;
74245;SDS011;62601;51.044;13.788;2023-02-13T02:26:42;25.58;;;16.73;;
74245;SDS011;62601;51.044;13.788;2023-02-13T02:29:23;24.58;;;16.60;;
74245;SDS011;62601;51.044;13.788;2023-02-13T02:32:02;23.48;;;16.65;;
74245;SDS011;62601;51.044;13.788;2023-02-13T02:34:31;26.20;;;16.30;;
74245;SDS011;62601;51.044;13.788;2023-02-13T02:42:16;22.83;;;16.33;;
74245;SDS011;62601;51.044;13.788;2023-02-13T02:44:40;23.17;;;16.00;;
74245;SDS011;62601;51.044;13.788;2023-02-13T02:49:27;28.48;;;16.67;;
74245;SDS011;62601;51.044;13.788;2023-02-13T02:56:56;24.27;;;16.58;;
74245;SDS011;62601;51.044;13.788;2023-02-13T02:59:18;27.00;;;18.98;;
74245;SDS011;62601;51.044;13.788;2023-02-13T03:01:38;28.88;;;17.75;;
74245;SDS011;62601;51.044;13.788;2023-02-13T03:04:00;23.02;;;16.95;;
74245;SDS011;62601;51.044;13.788;2023-02-13T03:06:29;29.33;;;17.75;;
74245;SDS011;62601;51.044;13.788;2023-02-13T03:08:53;28.65;;;17.30;;
74245;SDS011;62601;51.044;13.788;2023-02-13T03:11:14;25.15;;;16.10;;
74245;SDS011;62601;51.044;13.788;2023-02-13T03:13:38;25.80;;;16.33;;
74245;SDS011;62601;51.044;13.788;2023-02-13T03:16:00;28.10;;;17.58;;
74245;SDS011;62601;51.044;13.788;2023-02-13T03:18:20;30.08;;;16.55;;
74245;SDS011;62601;51.044;13.788;2023-02-13T03:20:54;33.67;;;17.67;;
74245;SDS011;62601;51.044;13.788;2023-02-13T03:23:20;30.95;;;18.52;;
74245;SDS011;62601;51.044;13.788;2023-02-13T03:25:57;32.30;;;16.88;;
74245;SDS011;62601;51.044;13.788;2023-02-13T03:30:50;31.80;;;16.15;;
74245;SDS011;62601;51.044;13.788;2023-02-13T03:35:45;38.03;;;17.77;;
74245;SDS011;62601;51.044;13.788;2023-02-13T03:38:09;36.03;;;17.70;;
74245;SDS011;62601;51.044;13.788;2023-02-13T03:40:35;37.67;;;19.25;;
74245;SDS011;62601;51.044;13.788;2023-02-13T03:43:09;38.65;;;18.35;;
74245;SDS011;62601;51.044;13.788;2023-02-13T03:45:31;32.85;;;17.13;;
74245;SDS011;62601;51.044;13.788;2023-02-13T03:47:55;33.10;;;17.30;;
74245;SDS011;62601;51.044;13.788;2023-02-13T03:50:16;36.75;;;18.50;;
74245;SDS011;62601;51.044;13.788;2023-02-13T03:52:44;36.28;;;17.75;;
74245;SDS011;62601;51.044;13.788;2023-02-13T03:57:33;36.28;;;18.33;;
74245;SDS011;62601;51.044;13.788;2023-02-13T03:59:55;35.55;;;17.17;;
74245;SDS011;62601;51.044;13.788;2023-02-13T04:02:17;35.35;;;17.35;;
74245;SDS011;62601;51.044;13.788;2023-02-13T04:04:50;38.30;;;18.17;;
74245;SDS011;62601;51.044;13.788;2023-02-13T04:07:12;38.63;;;18.77;;
74245;SDS011;62601;51.044;13.788;2023-02-13T04:09:34;37.33;;;18.98;;
74245;SDS011;62601;51.044;13.788;2023-02-13T04:14:37;34.95;;;17.52;;
74245;SDS011;62601;51.044;13.788;2023-02-13T04:17:01;31.73;;;17.08;;
74245;SDS011;62601;51.044;13.788;2023-02-13T04:19:24;36.13;;;19.33;;
74245;SDS011;62601;51.044;13.788;2023-02-13T04:21:47;32.53;;;17.83;;
74245;SDS011;62601;51.044;13.788;2023-02-13T04:24:08;34.70;;;18.48;;
74245;SDS011;62601;51.044;13.788;2023-02-13T04:26:41;37.30;;;16.92;;
74245;SDS011;62601;51.044;13.788;2023-02-13T04:29:02;35.97;;;17.73;;
74245;SDS011;62601;51.044;13.788;2023-02-13T04:31:22;33.80;;;17.38;;
74245;SDS011;62601;51.044;13.788;2023-02-13T04:33:42;31.70;;;17.35;;
74245;SDS011;62601;51.044;13.788;2023-02-13T04:36:02;33.20;;;17.50;;
74245;SDS011;62601;51.044;13.788;2023-02-13T04:38:22;34.03;;;18.25;;
74245;SDS011;62601;51.044;13.788;2023-02-13T04:40:42;34.92;;;17.50;;
74245;SDS011;62601;51.044;13.788;2023-02-13T04:43:02;30.90;;;17.10;;
74245;SDS011;62601;51.044;13.788;2023-02-13T04:45:23;34.42;;;16.70;;
74245;SDS011;62601;51.044;13.788;2023-02-13T04:47:48;28.30;;;16.33;;
74245;SDS011;62601;51.044;13.788;2023-02-13T04:50:08;31.38;;;17.05;;
74245;SDS011;62601;51.044;13.788;2023-02-13T04:52:28;29.38;;;16.40;;
74245;SDS011;62601;51.044;13.788;2023-02-13T04:54:49;29.00;;;16.15;;
74245;SDS011;62601;51.044;13.788;2023-02-13T04:57:09;27.90;;;15.45;;
74245;SDS011;62601;51.044;13.788;2023-02-13T04:59:29;28.05;;;15.25;;
74245;SDS011;62601;51.044;13.788;2023-02-13T05:01:49;27.30;;;15.82;;
74245;SDS011;62601;51.044;13.788;2023-02-13T05:04:09;26.52;;;15.13;;
74245;SDS011;62601;51.044;13.788;2023-02-13T05:06:29;29.10;;;15.20;;
74245;SDS011;62601;51.044;13.788;2023-02-13T05:08:49;26.23;;;16.08;;
74245;SDS011;62601;51.044;13.788;2023-02-13T05:11:09;30.02;;;14.98;;
74245;SDS011;62601;51.044;13.788;2023-02-13T05:13:29;27.58;;;15.05;;
74245;SDS011;62601;51.044;13.788;2023-02-13T05:15:50;24.17;;;14.68;;
74245;SDS011;62601;51.044;13.788;2023-02-13T05:18:10;25.83;;;14.10;;
74245;SDS011;62601;51.044;13.788;2023-02-13T05:20:30;26.80;;;13.60;;
74245;SDS011;62601;51.044;13.788;2023-02-13T05:22:51;26.02;;;14.40;;
74245;SDS011;62601;51.044;13.788;2023-02-13T05:25:11;23.13;;;13.95;;
74245;SDS011;62601;51.044;13.788;2023-02-13T05:27:31;26.00;;;14.13;;
74245;SDS011;62601;51.044;13.788;2023-02-13T05:29:51;26.88;;;14.48;;
74245;SDS011;62601;51.044;13.788;2023-02-13T05:32:12;23.27;;;14.13;;
74245;SDS011;62601;51.044;13.788;2023-02-13T05:34:32;23.98;;;14.73;;
74245;SDS011;62601;51.044;13.788;2023-02-13T05:36:52;24.13;;;13.23;;
74245;SDS011;62601;51.044;13.788;2023-02-13T05:39:12;22.13;;;14.13;;
74245;SDS011;62601;51.044;13.788;2023-02-13T05:41:32;28.50;;;14.10;;
74245;SDS011;62601;51.044;13.788;2023-02-13T05:43:52;24.40;;;13.38;;
74245;SDS011;62601;51.044;13.788;2023-02-13T05:46:12;24.92;;;13.23;;
74245;SDS011;62601;51.044;13.788;2023-02-13T05:48:33;25.00;;;14.40;;
74245;SDS011;62601;51.044;13.788;2023-02-13T05:50:53;24.63;;;15.05;;
74245;SDS011;62601;51.044;13.788;2023-02-13T05:53:13;21.20;;;13.30;;
74245;SDS011;62601;51.044;13.788;2023-02-13T05:55:33;24.00;;;13.27;;
74245;SDS011;62601;51.044;13.788;2023-02-13T05:57:57;27.05;;;13.70;;
74245;SDS011;62601;51.044;13.788;2023-02-13T06:00:17;24.02;;;14.32;;
74245;SDS011;62601;51.044;13.788;2023-02-13T06:02:37;22.83;;;14.60;;
74245;SDS011;62601;51.044;13.788;2023-02-13T06:04:57;21.10;;;12.20;;
74245;SDS011;62601;51.044;13.788;2023-02-13T06:07:17;24.05;;;13.30;;
74245;SDS011;62601;51.044;13.788;2023-02-13T06:09:37;23.77;;;14.30;;
74245;SDS011;62601;51.044;13.788;2023-02-13T06:11:57;24.80;;;14.73;;
74245;SDS011;62601;51.044;13.788;2023-02-13T06:14:17;26.60;;;14.13;;
74245;SDS011;62601;51.044;13.788;2023-02-13T06:16:38;24.17;;;13.10;;
74245;SDS011;62601;51.044;13.788;2023-02-13T06:18:58;20.67;;;13.25;;
74245;SDS011;62601;51.044;13.788;2023-02-13T06:21:18;27.83;;;13.48;;
74245;SDS011;62601;51.044;13.788;2023-02-13T06:23:38;25.60;;;14.93;;
74245;SDS011;62601;51.044;13.788;2023-02-13T06:26:02;27.05;;;13.80;;
74245;SDS011;62601;51.044;13.788;2023-02-13T06:28:22;24.73;;;13.90;;
74245;SDS011;62601;51.044;13.788;2023-02-13T06:30:42;27.73;;;15.05;;
74245;SDS011;62601;51.044;13.788;2023-02-13T06:33:03;27.23;;;14.80;;
74245;SDS011;62601;51.044;13.788;2023-02-13T06:35:23;31.77;;;16.27;;
74245;SDS011;62601;51.044;13.788;2023-02-13T06:37:43;27.30;;;14.30;;
74245;SDS011;62601;51.044;13.788;2023-02-13T06:40:04;25.95;;;14.60;;
74245;SDS011;62601;51.044;13.788;2023-02-13T06:42:25;26.17;;;14.65;;
74245;SDS011;62601;51.044;13.788;2023-02-13T06:44:45;30.25;;;15.23;;
74245;SDS011;62601;51.044;13.788;2023-02-13T06:47:05;25.35;;;13.93;;
74245;SDS011;62601;51.044;13.788;2023-02-13T06:49:25;29.15;;;15.10;;
74245;SDS011;62601;51.044;13.788;2023-02-13T06:51:45;26.17;;;13.98;;
74245;SDS011;62601;51.044;13.788;2023-02-13T06:54:05;28.88;;;15.55;;
74245;SDS011;62601;51.044;13.788;2023-02-13T06:56:25;28.40;;;15.00;;
74245;SDS011;62601;51.044;13.788;2023-02-13T06:58:45;29.75;;;14.90;;
74245;SDS011;62601;51.044;13.788;2023-02-13T07:01:05;27.65;;;14.45;;
74245;SDS011;62601;51.044;13.788;2023-02-13T07:03:26;30.58;;;16.00;;
74245;SDS011;62601;51.044;13.788;2023-02-13T07:05:46;30.08;;;14.27;;
74245;SDS011;62601;51.044;13.788;2023-02-13T07:08:06;28.55;;;13.88;;
74245;SDS011;62601;51.044;13.788;2023-02-13T07:10:26;30.42;;;13.85;;
74245;SDS011;62601;51.044;13.788;2023-02-13T07:12:46;29.58;;;13.82;;
74245;SDS011;62601;51.044;13.788;2023-02-13T07:15:07;32.40;;;14.52;;
74245;SDS011;62601;51.044;13.788;2023-02-13T07:17:27;27.58;;;14.30;;
74245;SDS011;62601;51.044;13.788;2023-02-13T07:19:47;27.63;;;13.77;;
74245;SDS011;62601;51.044;13.788;2023-02-13T07:22:07;30.60;;;15.40;;
74245;SDS011;62601;51.044;13.788;2023-02-13T07:24:27;26.67;;;13.60;;
74245;SDS011;62601;51.044;13.788;2023-02-13T07:26:47;26.05;;;13.55;;
74245;SDS011;62601;51.044;13.788;2023-02-13T07:29:07;29.45;;;14.27;;
74245;SDS011;62601;51.044;13.788;2023-02-13T07:31:27;28.38;;;14.20;;
74245;SDS011;62601;51.044;13.788;2023-02-13T07:33:48;29.15;;;13.43;;
74245;SDS011;62601;51.044;13.788;2023-02-13T07:36:08;31.35;;;13.80;;
74245;SDS011;62601;51.044;13.788;2023-02-13T07:38:28;30.88;;;14.27;;
74245;SDS011;62601;51.044;13.788;2023-02-13T07:40:49;27.70;;;14.00;;
74245;SDS011;62601;51.044;13.788;2023-02-13T07:43:09;32.58;;;16.17;;
74245;SDS011;62601;51.044;13.788;2023-02-13T07:45:29;35.00;;;18.83;;
74245;SDS011;62601;51.044;13.788;2023-02-13T07:47:49;36.40;;;15.95;;
74245;SDS011;62601;51.044;13.788;2023-02-13T07:50:09;40.50;;;15.90;;
74245;SDS011;62601;51.044;13.788;2023-02-13T07:52:30;32.40;;;14.15;;
74245;SDS011;62601;51.044;13.788;2023-02-13T07:54:51;29.15;;;14.52;;
74245;SDS011;62601;51.044;13.788;2023-02-13T07:57:12;34.63;;;14.10;;
74245;SDS011;62601;51.044;13.788;2023-02-13T07:59:32;39.17;;;17.63;;
74245;SDS011;62601;51.044;13.788;2023-02-13T08:01:52;29.10;;;14.68;;
74245;SDS011;62601;51.044;13.788;2023-02-13T08:04:15;33.53;;;14.60;;
74245;SDS011;62601;51.044;13.788;2023-02-13T08:06:37;31.05;;;14.35;;
74245;SDS011;62601;51.044;13.788;2023-02-13T08:08:57;30.98;;;15.50;;
74245;SDS011;62601;51.044;13.788;2023-02-13T08:11:25;28.23;;;15.18;;
74245;SDS011;62601;51.044;13.788;2023-02-13T08:13:47;24.55;;;14.45;;
74245;SDS011;62601;51.044;13.788;2023-02-13T08:16:07;32.22;;;14.98;;
74245;SDS011;62601;51.044;13.788;2023-02-13T08:18:27;29.98;;;14.00;;
74245;SDS011;62601;51.044;13.788;2023-02-13T08:20:48;29.05;;;14.40;;
74245;SDS011;62601;51.044;13.788;2023-02-13T08:23:09;31.00;;;14.35;;
74245;SDS011;62601;51.044;13.788;2023-02-13T08:25:29;30.23;;;13.77;;
74245;SDS011;62601;51.044;13.788;2023-02-13T08:27:49;30.60;;;14.82;;
74245;SDS011;62601;51.044;13.788;2023-02-13T08:30:09;23.75;;;13.70;;
74245;SDS011;62601;51.044;13.788;2023-02-13T08:32:30;30.23;;;15.07;;
74245;SDS011;62601;51.044;13.788;2023-02-13T08:34:50;27.67;;;13.77;;
74245;SDS011;62601;51.044;13.788;2023-02-13T08:37:10;32.67;;;14.85;;
74245;SDS011;62601;51.044;13.788;2023-02-13T08:39:30;26.60;;;14.70;;
74245;SDS011;62601;51.044;13.788;2023-02-13T08:41:50;31.73;;;15.38;;
74245;SDS011;62601;51.044;13.788;2023-02-13T08:44:10;32.05;;;15.48;;
74245;SDS011;62601;51.044;13.788;2023-02-13T08:46:30;32.50;;;14.75;;
74245;SDS011;62601;51.044;13.788;2023-02-13T08:48:50;30.85;;;15.35;;
74245;SDS011;62601;51.044;13.788;2023-02-13T08:51:11;26.80;;;13.10;;
74245;SDS011;62601;51.044;13.788;2023-02-13T08:53:32;25.48;;;13.05;;
74245;SDS011;62601;51.044;13.788;2023-02-13T08:55:52;28.75;;;14.93;;
74245;SDS011;62601;51.044;13.788;2023-02-13T08:58:12;23.70;;;12.80;;
74245;SDS011;62601;51.044;13.788;2023-02-13T09:00:33;25.65;;;13.80;;
74245;SDS011;62601;51.044;13.788;2023-02-13T09:02:53;24.20;;;11.68;;
74245;SDS011;62601;51.044;13.788;2023-02-13T09:05:13;28.10;;;13.65;;
74245;SDS011;62601;51.044;13.788;2023-02-13T09:07:33;24.90;;;13.30;;
74245;SDS011;62601;51.044;13.788;2023-02-13T09:09:53;27.08;;;13.15;;
74245;SDS011;62601;51.044;13.788;2023-02-13T09:12:13;25.98;;;13.35;;
74245;SDS011;62601;51.044;13.788;2023-02-13T09:14:33;20.20;;;12.50;;
74245;SDS011;62601;51.044;13.788;2023-02-13T09:16:53;22.85;;;13.63;;
74245;SDS011;62601;51.044;13.788;2023-02-13T09:19:13;23.02;;;13.43;;
74245;SDS011;62601;51.044;13.788;2023-02-13T09:21:33;25.75;;;12.20;;
74245;SDS011;62601;51.044;13.788;2023-02-13T09:23:53;25.60;;;12.52;;
74245;SDS011;62601;51.044;13.788;2023-02-13T09:26:14;22.88;;;12.68;;
74245;SDS011;62601;51.044;13.788;2023-02-13T09:28:36;17.42;;;11.35;;
74245;SDS011;62601;51.044;13.788;2023-02-13T09:30:56;22.52;;;11.25;;
74245;SDS011;62601;51.044;13.788;2023-02-13T09:33:16;21.33;;;12.10;;
74245;SDS011;62601;51.044;13.788;2023-02-13T09:35:36;23.35;;;11.88;;
74245;SDS011;62601;51.044;13.788;2023-02-13T09:37:59;23.45;;;13.13;;
74245;SDS011;62601;51.044;13.788;2023-02-13T09:40:21;18.15;;;10.85;;
74245;SDS011;62601;51.044;13.788;2023-02-13T09:42:42;21.35;;;12.30;;
74245;SDS011;62601;51.044;13.788;2023-02-13T09:45:03;26.15;;;12.93;;
74245;SDS011;62601;51.044;13.788;2023-02-13T09:47:29;23.90;;;12.13;;
74245;SDS011;62601;51.044;13.788;2023-02-13T09:49:54;21.80;;;11.93;;
74245;SDS011;62601;51.044;13.788;2023-02-13T09:52:15;21.73;;;12.65;;
74245;SDS011;62601;51.044;13.788;2023-02-13T09:54:35;20.90;;;11.75;;
74245;SDS011;62601;51.044;13.788;2023-02-13T09:56:58;21.45;;;11.45;;
74245;SDS011;62601;51.044;13.788;2023-02-13T09:59:36;25.77;;;12.50;;
74245;SDS011;62601;51.044;13.788;2023-02-13T10:02:00;19.23;;;11.00;;
74245;SDS011;62601;51.044;13.788;2023-02-13T10:07:08;20.92;;;12.32;;
74245;SDS011;62601;51.044;13.788;2023-02-13T10:09:32;24.17;;;12.85;;
74245;SDS011;62601;51.044;13.788;2023-02-13T10:12:02;19.38;;;12.10;;
74245;SDS011;62601;51.044;13.788;2023-02-13T10:14:26;24.58;;;16.02;;
74245;SDS011;62601;51.044;13.788;2023-02-13T10:16:59;28.95;;;16.65;;
74245;SDS011;62601;51.044;13.788;2023-02-13T10:22:18;18.55;;;11.77;;
74245;SDS011;62601;51.044;13.788;2023-02-13T10:24:43;20.23;;;11.88;;
74245;SDS011;62601;51.044;13.788;2023-02-13T10:27:15;21.23;;;12.40;;
74245;SDS011;62601;51.044;13.788;2023-02-13T10:32:07;25.05;;;14.73;;
74245;SDS011;62601;51.044;13.788;2023-02-13T10:34:27;22.27;;;12.95;;
74245;SDS011;62601;51.044;13.788;2023-02-13T10:36:50;20.02;;;12.18;;
74245;SDS011;62601;51.044;13.788;2023-02-13T10:39:21;23.00;;;14.30;;
74245;SDS011;62601;51.044;13.788;2023-02-13T10:42:26;20.70;;;12.32;;
74245;SDS011;62601;51.044;13.788;2023-02-13T10:44:32;20.17;;;12.05;;
74245;SDS011;62601;51.044;13.788;2023-02-13T10:46:56;19.40;;;11.90;;
74245;SDS011;62601;51.044;13.788;2023-02-13T10:52:06;16.48;;;10.52;;
74245;SDS011;62601;51.044;13.788;2023-02-13T10:54:33;18.95;;;12.68;;
74245;SDS011;62601;51.044;13.788;2023-02-13T11:04:42;14.50;;;9.65;;
74245;SDS011;62601;51.044;13.788;2023-02-13T11:07:03;14.85;;;8.25;;
74245;SDS011;62601;51.044;13.788;2023-02-13T11:09:24;10.93;;;7.78;;
74245;SDS011;62601;51.044;13.788;2023-02-13T11:11:44;13.25;;;9.05;;
74245;SDS011;62601;51.044;13.788;2023-02-13T11:14:09;14.05;;;9.30;;
74245;SDS011;62601;51.044;13.788;2023-02-13T11:16:30;11.00;;;7.68;;
74245;SDS011;62601;51.044;13.788;2023-02-13T11:18:56;11.73;;;8.45;;
74245;SDS011;62601;51.044;13.788;2023-02-13T11:21:20;13.55;;;8.50;;
74245;SDS011;62601;51.044;13.788;2023-02-13T11:23:53;12.02;;;9.30;;
74245;SDS011;62601;51.044;13.788;2023-02-13T11:26:15;12.98;;;9.70;;
74245;SDS011;62601;51.044;13.788;2023-02-13T11:28:46;12.02;;;8.63;;
74245;SDS011;62601;51.044;13.788;2023-02-13T11:31:07;11.93;;;7.95;;
74245;SDS011;62601;51.044;13.788;2023-02-13T11:33:28;13.35;;;8.52;;
74245;SDS011;62601;51.044;13.788;2023-02-13T11:35:48;11.90;;;8.40;;
74245;SDS011;62601;51.044;13.788;2023-02-13T11:40:29;14.35;;;9.13;;
74245;SDS011;62601;51.044;13.788;2023-02-13T11:42:50;15.25;;;8.93;;
74245;SDS011;62601;51.044;13.788;2023-02-13T11:45:20;13.32;;;9.52;;
74245;SDS011;62601;51.044;13.788;2023-02-13T11:47:41;13.88;;;8.95;;
74245;SDS011;62601;51.044;13.788;2023-02-13T11:50:02;14.93;;;9.63;;
74245;SDS011;62601;51.044;13.788;2023-02-13T11:52:24;13.25;;;8.73;;
74245;SDS011;62601;51.044;13.788;2023-02-13T11:54:45;12.13;;;8.73;;
74245;SDS011;62601;51.044;13.788;2023-02-13T11:57:30;11.63;;;9.02;;
74245;SDS011;62601;51.044;13.788;2023-02-13T11:59:51;11.00;;;8.50;;
74245;SDS011;62601;51.044;13.788;2023-02-13T12:02:13;13.85;;;9.73;;
74245;SDS011;62601;51.044;13.788;2023-02-13T12:04:34;10.02;;;8.35;;
74245;SDS011;62601;51.044;13.788;2023-02-13T12:07:02;12.48;;;9.57;;
74245;SDS011;62601;51.044;13.788;2023-02-13T12:09:24;11.55;;;9.10;;
74245;SDS011;62601;51.044;13.788;2023-02-13T12:11:47;10.32;;;8.93;;
74245;SDS011;62601;51.044;13.788;2023-02-13T12:14:09;9.60;;;8.13;;
74245;SDS011;62601;51.044;13.788;2023-02-13T12:16:37;9.77;;;7.65;;
74245;SDS011;62601;51.044;13.788;2023-02-13T12:18:59;10.90;;;7.80;;
74245;SDS011;62601;51.044;13.788;2023-02-13T12:24:45;9.48;;;6.93;;
74245;SDS011;62601;51.044;13.788;2023-02-13T12:26:47;11.85;;;8.07;;
74245;SDS011;62601;51.044;13.788;2023-02-13T12:37:29;8.07;;;7.22;;
74245;SDS011;62601;51.044;13.788;2023-02-13T12:42:19;8.60;;;7.43;;
74245;SDS011;62601;51.044;13.788;2023-02-13T12:45:01;10.30;;;7.97;;
74245;SDS011;62601;51.044;13.788;2023-02-13T12:58:28;8.85;;;7.93;;
74245;SDS011;62601;51.044;13.788;2023-02-13T13:01:03;12.65;;;8.60;;
74245;SDS011;62601;51.044;13.788;2023-02-13T13:03:45;11.02;;;8.18;;
74245;SDS011;62601;51.044;13.788;2023-02-13T13:09:09;10.35;;;7.68;;
74245;SDS011;62601;51.044;13.788;2023-02-13T13:17:02;9.68;;;6.85;;
74245;SDS011;62601;51.044;13.788;2023-02-13T13:25:03;7.10;;;6.40;;
74245;SDS011;62601;51.044;13.788;2023-02-13T13:27:44;7.55;;;6.72;;
74245;SDS011;62601;51.044;13.788;2023-02-13T13:30:17;6.70;;;6.00;;
74245;SDS011;62601;51.044;13.788;2023-02-13T13:32:42;6.95;;;6.25;;
74245;SDS011;62601;51.044;13.788;2023-02-13T13:35:05;10.02;;;6.80;;
74245;SDS011;62601;51.044;13.788;2023-02-13T13:43:16;8.88;;;6.75;;
74245;SDS011;62601;51.044;13.788;2023-02-13T13:45:41;7.80;;;6.57;;
74245;SDS011;62601;51.044;13.788;2023-02-13T13:50:45;9.00;;;7.18;;
74245;SDS011;62601;51.044;13.788;2023-02-13T13:53:18;10.55;;;8.50;;
74245;SDS011;62601;51.044;13.788;2023-02-13T13:58:19;10.95;;;7.40;;
74245;SDS011;62601;51.044;13.788;2023-02-13T14:00:41;8.25;;;6.63;;
74245;SDS011;62601;51.044;13.788;2023-02-13T14:05:58;12.85;;;6.95;;
74245;SDS011;62601;51.044;13.788;2023-02-13T14:11:01;9.48;;;6.65;;
74245;SDS011;62601;51.044;13.788;2023-02-13T14:13:30;7.43;;;6.20;;
74245;SDS011;62601;51.044;13.788;2023-02-13T14:15:55;8.05;;;5.40;;
74245;SDS011;62601;51.044;13.788;2023-02-13T14:20:52;6.72;;;6.10;;
74245;SDS011;62601;51.044;13.788;2023-02-13T14:23:18;7.97;;;6.43;;
74245;SDS011;62601;51.044;13.788;2023-02-13T14:25:41;8.45;;;5.97;;
74245;SDS011;62601;51.044;13.788;2023-02-13T14:28:03;8.55;;;6.60;;
74245;SDS011;62601;51.044;13.788;2023-02-13T14:30:35;7.68;;;6.63;;
74245;SDS011;62601;51.044;13.788;2023-02-13T14:32:59;7.47;;;6.50;;
74245;SDS011;62601;51.044;13.788;2023-02-13T14:35:29;8.43;;;6.50;;
74245;SDS011;62601;51.044;13.788;2023-02-13T14:37:55;7.43;;;6.60;;
74245;SDS011;62601;51.044;13.788;2023-02-13T14:42:49;10.00;;;7.55;;
74245;SDS011;62601;51.044;13.788;2023-02-13T14:45:13;12.13;;;7.50;;
74245;SDS011;62601;51.044;13.788;2023-02-13T14:47:36;7.95;;;6.68;;
74245;SDS011;62601;51.044;13.788;2023-02-13T14:50:00;11.52;;;7.57;;
74245;SDS011;62601;51.044;13.788;2023-02-13T14:52:21;10.65;;;8.02;;
74245;SDS011;62601;51.044;13.788;2023-02-13T14:54:50;9.98;;;7.20;;
74245;SDS011;62601;51.044;13.788;2023-02-13T14:59:37;14.38;;;8.00;;
74245;SDS011;62601;51.044;13.788;2023-02-13T15:02:00;10.75;;;8.45;;
74245;SDS011;62601;51.044;13.788;2023-02-13T15:04:22;10.93;;;8.30;;
74245;SDS011;62601;51.044;13.788;2023-02-13T15:06:46;11.13;;;8.15;;
74245;SDS011;62601;51.044;13.788;2023-02-13T15:09:16;11.05;;;8.40;;
74245;SDS011;62601;51.044;13.788;2023-02-13T15:11:41;13.38;;;9.38;;
74245;SDS011;62601;51.044;13.788;2023-02-13T15:16:42;12.07;;;8.55;;
74245;SDS011;62601;51.044;13.788;2023-02-13T15:19:05;12.93;;;9.60;;
74245;SDS011;62601;51.044;13.788;2023-02-13T15:21:26;13.95;;;8.95;;
74245;SDS011;62601;51.044;13.788;2023-02-13T15:23:51;13.52;;;9.30;;
74245;SDS011;62601;51.044;13.788;2023-02-13T15:26:18;12.63;;;9.35;;
74245;SDS011;62601;51.044;13.788;2023-02-13T15:28:39;11.38;;;8.77;;
74245;SDS011;62601;51.044;13.788;2023-02-13T15:31:17;12.88;;;9.48;;
74245;SDS011;62601;51.044;13.788;2023-02-13T15:33:43;11.00;;;8.93;;
74245;SDS011;62601;51.044;13.788;2023-02-13T15:36:05;12.00;;;8.50;;
74245;SDS011;62601;51.044;13.788;2023-02-13T15:38:34;14.77;;;9.18;;
74245;SDS011;62601;51.044;13.788;2023-02-13T15:41:00;11.57;;;8.30;;
74245;SDS011;62601;51.044;13.788;2023-02-13T15:43:31;11.93;;;9.40;;
74245;SDS011;62601;51.044;13.788;2023-02-13T15:45:54;12.30;;;9.25;;